sensor_id;sensor_type;location;lat;lon;timestamp;P1;durP1;ratioP1;P2;durP2;ratioP2
6121;SDS011;3091;51.506;7.672;2023-02-17T00:00:05;59.77;;;55.47;;
6121;SDS011;3091;51.506;7.672;2023-02-17T00:02:32;63.23;;;57.30;;
6121;SDS011;3091;51.506;7.672;2023-02-17T00:04:58;57.10;;;52.87;;
6121;SDS011;3091;51.506;7.672;2023-02-17T00:07:24;68.00;;;62.60;;
6121;SDS011;3091;51.506;7.672;2023-02-17T00:09:55;63.30;;;58.40;;
6121;SDS011;3091;51.506;7.672;2023-02-17T00:12:21;66.90;;;62.10;;
6121;SDS011;3091;51.506;7.672;2023-02-17T00:14:50;69.27;;;63.97;;
6121;SDS011;3091;51.506;7.672;2023-02-17T00:17:16;77.90;;;71.73;;
6121;SDS011;3091;51.506;7.672;2023-02-17T00:19:42;67.80;;;63.00;;
6121;SDS011;3091;51.506;7.672;2023-02-17T00:22:08;76.50;;;70.87;;
6121;SDS011;3091;51.506;7.672;2023-02-17T00:24:36;80.57;;;74.47;;
6121;SDS011;3091;51.506;7.672;2023-02-17T00:27:05;79.03;;;73.83;;
6121;SDS011;3091;51.506;7.672;2023-02-17T00:29:31;87.67;;;81.37;;
6121;SDS011;3091;51.506;7.672;2023-02-17T00:31:57;82.73;;;77.23;;
6121;SDS011;3091;51.506;7.672;2023-02-17T00:34:23;87.43;;;81.57;;
6121;SDS011;3091;51.506;7.672;2023-02-17T00:36:51;92.53;;;86.53;;
6121;SDS011;3091;51.506;7.672;2023-02-17T00:39:17;84.77;;;79.30;;
6121;SDS011;3091;51.506;7.672;2023-02-17T00:41:43;96.70;;;89.30;;
6121;SDS011;3091;51.506;7.672;2023-02-17T00:44:20;98.07;;;91.17;;
6121;SDS011;3091;51.506;7.672;2023-02-17T00:46:46;97.47;;;90.80;;
6121;SDS011;3091;51.506;7.672;2023-02-17T00:49:22;86.57;;;80.80;;
6121;SDS011;3091;51.506;7.672;2023-02-17T00:51:49;86.70;;;81.03;;
6121;SDS011;3091;51.506;7.672;2023-02-17T00:54:15;92.53;;;86.50;;
6121;SDS011;3091;51.506;7.672;2023-02-17T00:56:42;85.90;;;80.27;;
6121;SDS011;3091;51.506;7.672;2023-02-17T00:59:08;95.43;;;87.80;;
6121;SDS011;3091;51.506;7.672;2023-02-17T01:01:34;89.27;;;83.70;;
6121;SDS011;3091;51.506;7.672;2023-02-17T01:04:01;92.60;;;86.73;;
6121;SDS011;3091;51.506;7.672;2023-02-17T01:06:30;82.97;;;78.03;;
6121;SDS011;3091;51.506;7.672;2023-02-17T01:08:57;85.90;;;80.90;;
6121;SDS011;3091;51.506;7.672;2023-02-17T01:11:24;88.40;;;82.60;;
6121;SDS011;3091;51.506;7.672;2023-02-17T01:13:51;76.87;;;72.00;;
6121;SDS011;3091;51.506;7.672;2023-02-17T01:16:18;76.60;;;71.60;;
6121;SDS011;3091;51.506;7.672;2023-02-17T01:18:49;76.83;;;72.03;;
6121;SDS011;3091;51.506;7.672;2023-02-17T01:21:16;69.20;;;64.77;;
6121;SDS011;3091;51.506;7.672;2023-02-17T01:23:42;68.90;;;64.50;;
6121;SDS011;3091;51.506;7.672;2023-02-17T01:26:12;76.97;;;71.33;;
6121;SDS011;3091;51.506;7.672;2023-02-17T01:28:38;66.90;;;62.60;;
6121;SDS011;3091;51.506;7.672;2023-02-17T01:31:05;70.27;;;65.30;;
6121;SDS011;3091;51.506;7.672;2023-02-17T01:33:31;62.50;;;58.43;;
6121;SDS011;3091;51.506;7.672;2023-02-17T01:36:00;58.67;;;55.07;;
6121;SDS011;3091;51.506;7.672;2023-02-17T01:38:27;53.00;;;49.63;;
6121;SDS011;3091;51.506;7.672;2023-02-17T01:40:53;51.33;;;48.23;;
6121;SDS011;3091;51.506;7.672;2023-02-17T01:43:19;47.20;;;44.30;;
6121;SDS011;3091;51.506;7.672;2023-02-17T01:45:50;44.83;;;41.83;;
6121;SDS011;3091;51.506;7.672;2023-02-17T01:48:17;44.20;;;41.07;;
6121;SDS011;3091;51.506;7.672;2023-02-17T01:50:47;37.00;;;34.80;;
6121;SDS011;3091;51.506;7.672;2023-02-17T01:53:17;42.87;;;39.20;;
6121;SDS011;3091;51.506;7.672;2023-02-17T01:55:45;36.03;;;33.67;;
6121;SDS011;3091;51.506;7.672;2023-02-17T01:58:12;31.53;;;29.10;;
6121;SDS011;3091;51.506;7.672;2023-02-17T02:00:40;28.17;;;25.63;;
6121;SDS011;3091;51.506;7.672;2023-02-17T02:03:07;33.83;;;31.50;;
6121;SDS011;3091;51.506;7.672;2023-02-17T02:05:33;31.03;;;28.57;;
6121;SDS011;3091;51.506;7.672;2023-02-17T02:07:59;27.07;;;25.00;;
6121;SDS011;3091;51.506;7.672;2023-02-17T02:10:25;26.00;;;24.20;;
6121;SDS011;3091;51.506;7.672;2023-02-17T02:12:51;21.93;;;20.63;;
6121;SDS011;3091;51.506;7.672;2023-02-17T02:15:21;25.27;;;23.57;;
6121;SDS011;3091;51.506;7.672;2023-02-17T02:27:52;28.03;;;25.80;;
6121;SDS011;3091;51.506;7.672;2023-02-17T02:38:16;26.57;;;24.80;;
6121;SDS011;3091;51.506;7.672;2023-02-17T02:40:43;25.57;;;23.73;;
6121;SDS011;3091;51.506;7.672;2023-02-17T02:43:11;25.73;;;24.07;;
6121;SDS011;3091;51.506;7.672;2023-02-17T02:45:37;26.00;;;24.30;;
6121;SDS011;3091;51.506;7.672;2023-02-17T02:48:03;28.90;;;26.87;;
6121;SDS011;3091;51.506;7.672;2023-02-17T02:56:04;36.53;;;33.70;;
6121;SDS011;3091;51.506;7.672;2023-02-17T03:01:21;29.10;;;27.10;;
6121;SDS011;3091;51.506;7.672;2023-02-17T03:06:38;23.70;;;22.20;;
6121;SDS011;3091;51.506;7.672;2023-02-17T03:09:10;19.93;;;18.83;;
6121;SDS011;3091;51.506;7.672;2023-02-17T03:11:38;26.50;;;24.57;;
6121;SDS011;3091;51.506;7.672;2023-02-17T03:14:05;25.00;;;23.27;;
6121;SDS011;3091;51.506;7.672;2023-02-17T03:16:32;23.03;;;21.63;;
6121;SDS011;3091;51.506;7.672;2023-02-17T03:18:58;24.30;;;22.50;;
6121;SDS011;3091;51.506;7.672;2023-02-17T03:21:25;25.60;;;23.90;;
6121;SDS011;3091;51.506;7.672;2023-02-17T03:23:53;22.00;;;20.60;;
6121;SDS011;3091;51.506;7.672;2023-02-17T03:26:19;22.47;;;21.20;;
6121;SDS011;3091;51.506;7.672;2023-02-17T03:28:45;22.23;;;20.97;;
6121;SDS011;3091;51.506;7.672;2023-02-17T03:31:11;23.97;;;22.27;;
6121;SDS011;3091;51.506;7.672;2023-02-17T03:33:37;22.87;;;21.67;;
6121;SDS011;3091;51.506;7.672;2023-02-17T03:36:03;24.20;;;22.57;;
6121;SDS011;3091;51.506;7.672;2023-02-17T03:38:29;20.10;;;19.10;;
6121;SDS011;3091;51.506;7.672;2023-02-17T03:40:55;18.47;;;17.50;;
6121;SDS011;3091;51.506;7.672;2023-02-17T03:43:21;23.20;;;21.70;;
6121;SDS011;3091;51.506;7.672;2023-02-17T03:45:47;19.43;;;18.53;;
6121;SDS011;3091;51.506;7.672;2023-02-17T03:48:13;22.33;;;20.60;;
6121;SDS011;3091;51.506;7.672;2023-02-17T03:50:39;18.83;;;17.70;;
6121;SDS011;3091;51.506;7.672;2023-02-17T03:53:05;22.33;;;20.83;;
6121;SDS011;3091;51.506;7.672;2023-02-17T03:55:31;22.30;;;20.90;;
6121;SDS011;3091;51.506;7.672;2023-02-17T03:57:57;19.17;;;18.17;;
6121;SDS011;3091;51.506;7.672;2023-02-17T04:00:23;20.00;;;18.80;;
6121;SDS011;3091;51.506;7.672;2023-02-17T04:02:49;20.23;;;19.10;;
6121;SDS011;3091;51.506;7.672;2023-02-17T04:05:15;18.03;;;17.13;;
6121;SDS011;3091;51.506;7.672;2023-02-17T04:07:41;19.77;;;18.77;;
6121;SDS011;3091;51.506;7.672;2023-02-17T04:10:07;21.53;;;20.10;;
6121;SDS011;3091;51.506;7.672;2023-02-17T04:12:33;18.83;;;17.73;;
6121;SDS011;3091;51.506;7.672;2023-02-17T04:14:59;17.27;;;16.43;;
6121;SDS011;3091;51.506;7.672;2023-02-17T04:17:25;19.70;;;18.57;;
6121;SDS011;3091;51.506;7.672;2023-02-17T04:19:51;19.00;;;18.00;;
6121;SDS011;3091;51.506;7.672;2023-02-17T04:22:17;19.13;;;18.03;;
6121;SDS011;3091;51.506;7.672;2023-02-17T04:24:43;17.27;;;16.47;;
6121;SDS011;3091;51.506;7.672;2023-02-17T04:27:09;17.57;;;16.63;;
6121;SDS011;3091;51.506;7.672;2023-02-17T04:29:35;21.10;;;19.57;;
6121;SDS011;3091;51.506;7.672;2023-02-17T04:32:01;19.83;;;18.63;;
6121;SDS011;3091;51.506;7.672;2023-02-17T04:34:27;18.70;;;17.33;;
6121;SDS011;3091;51.506;7.672;2023-02-17T04:36:53;17.63;;;16.80;;
6121;SDS011;3091;51.506;7.672;2023-02-17T04:39:19;19.63;;;18.30;;
6121;SDS011;3091;51.506;7.672;2023-02-17T04:41:46;18.80;;;17.80;;
6121;SDS011;3091;51.506;7.672;2023-02-17T04:44:12;18.90;;;17.80;;
6121;SDS011;3091;51.506;7.672;2023-02-17T04:46:38;19.83;;;18.77;;
6121;SDS011;3091;51.506;7.672;2023-02-17T04:49:04;18.07;;;17.20;;
6121;SDS011;3091;51.506;7.672;2023-02-17T04:51:30;18.70;;;17.63;;
6121;SDS011;3091;51.506;7.672;2023-02-17T04:53:56;19.47;;;18.37;;
6121;SDS011;3091;51.506;7.672;2023-02-17T04:56:22;22.77;;;21.17;;
6121;SDS011;3091;51.506;7.672;2023-02-17T04:58:48;18.27;;;17.47;;
6121;SDS011;3091;51.506;7.672;2023-02-17T05:01:16;19.13;;;18.13;;
6121;SDS011;3091;51.506;7.672;2023-02-17T05:03:42;19.30;;;18.40;;
6121;SDS011;3091;51.506;7.672;2023-02-17T05:06:08;21.60;;;20.30;;
6121;SDS011;3091;51.506;7.672;2023-02-17T05:08:35;19.73;;;18.63;;
6121;SDS011;3091;51.506;7.672;2023-02-17T05:11:01;19.90;;;18.90;;
6121;SDS011;3091;51.506;7.672;2023-02-17T05:13:27;18.90;;;18.00;;
6121;SDS011;3091;51.506;7.672;2023-02-17T05:15:53;19.73;;;18.60;;
6121;SDS011;3091;51.506;7.672;2023-02-17T05:18:19;19.33;;;18.37;;
6121;SDS011;3091;51.506;7.672;2023-02-17T05:20:45;19.43;;;18.40;;
6121;SDS011;3091;51.506;7.672;2023-02-17T05:23:11;19.03;;;17.90;;
6121;SDS011;3091;51.506;7.672;2023-02-17T05:25:37;19.03;;;18.10;;
6121;SDS011;3091;51.506;7.672;2023-02-17T05:28:04;18.80;;;17.90;;
6121;SDS011;3091;51.506;7.672;2023-02-17T05:30:31;17.70;;;16.90;;
6121;SDS011;3091;51.506;7.672;2023-02-17T05:32:57;18.90;;;17.80;;
6121;SDS011;3091;51.506;7.672;2023-02-17T05:35:23;21.93;;;20.43;;
6121;SDS011;3091;51.506;7.672;2023-02-17T05:37:49;21.50;;;20.10;;
6121;SDS011;3091;51.506;7.672;2023-02-17T05:40:17;18.43;;;17.57;;
6121;SDS011;3091;51.506;7.672;2023-02-17T05:42:43;20.77;;;19.60;;
6121;SDS011;3091;51.506;7.672;2023-02-17T05:45:09;19.40;;;18.40;;
6121;SDS011;3091;51.506;7.672;2023-02-17T05:47:35;19.37;;;18.27;;
6121;SDS011;3091;51.506;7.672;2023-02-17T05:50:02;20.07;;;18.90;;
6121;SDS011;3091;51.506;7.672;2023-02-17T05:52:30;21.60;;;20.20;;
6121;SDS011;3091;51.506;7.672;2023-02-17T05:54:56;20.20;;;19.20;;
6121;SDS011;3091;51.506;7.672;2023-02-17T05:57:22;20.50;;;19.37;;
6121;SDS011;3091;51.506;7.672;2023-02-17T05:59:48;24.07;;;22.50;;
6121;SDS011;3091;51.506;7.672;2023-02-17T06:02:14;21.30;;;20.10;;
6121;SDS011;3091;51.506;7.672;2023-02-17T06:04:40;20.17;;;18.80;;
6121;SDS011;3091;51.506;7.672;2023-02-17T06:07:06;22.37;;;21.10;;
6121;SDS011;3091;51.506;7.672;2023-02-17T06:09:35;19.40;;;18.50;;
6121;SDS011;3091;51.506;7.672;2023-02-17T06:12:01;23.07;;;21.57;;
6121;SDS011;3091;51.506;7.672;2023-02-17T06:14:27;20.63;;;19.63;;
6121;SDS011;3091;51.506;7.672;2023-02-17T06:16:55;19.67;;;18.63;;
6121;SDS011;3091;51.506;7.672;2023-02-17T06:19:22;18.70;;;17.80;;
6121;SDS011;3091;51.506;7.672;2023-02-17T06:21:48;20.00;;;19.00;;
6121;SDS011;3091;51.506;7.672;2023-02-17T06:24:14;20.47;;;19.17;;
6121;SDS011;3091;51.506;7.672;2023-02-17T06:26:40;21.23;;;20.07;;
6121;SDS011;3091;51.506;7.672;2023-02-17T06:29:06;21.97;;;20.50;;
6121;SDS011;3091;51.506;7.672;2023-02-17T06:31:32;21.67;;;20.27;;
6121;SDS011;3091;51.506;7.672;2023-02-17T06:34:00;21.60;;;20.30;;
6121;SDS011;3091;51.506;7.672;2023-02-17T06:36:26;20.30;;;19.20;;
6121;SDS011;3091;51.506;7.672;2023-02-17T06:38:52;21.20;;;19.70;;
6121;SDS011;3091;51.506;7.672;2023-02-17T06:41:19;20.23;;;18.80;;
6121;SDS011;3091;51.506;7.672;2023-02-17T06:43:45;21.20;;;19.90;;
6121;SDS011;3091;51.506;7.672;2023-02-17T06:46:11;19.20;;;18.20;;
6121;SDS011;3091;51.506;7.672;2023-02-17T06:48:37;20.97;;;19.70;;
6121;SDS011;3091;51.506;7.672;2023-02-17T06:51:03;22.40;;;21.00;;
6121;SDS011;3091;51.506;7.672;2023-02-17T06:53:29;20.73;;;19.53;;
6121;SDS011;3091;51.506;7.672;2023-02-17T06:55:55;22.90;;;21.40;;
6121;SDS011;3091;51.506;7.672;2023-02-17T06:58:21;23.83;;;22.23;;
6121;SDS011;3091;51.506;7.672;2023-02-17T07:00:47;22.07;;;20.43;;
6121;SDS011;3091;51.506;7.672;2023-02-17T07:03:13;21.97;;;20.10;;
6121;SDS011;3091;51.506;7.672;2023-02-17T07:05:39;21.03;;;19.83;;
6121;SDS011;3091;51.506;7.672;2023-02-17T07:08:05;22.33;;;20.80;;
6121;SDS011;3091;51.506;7.672;2023-02-17T07:10:31;20.00;;;18.90;;
6121;SDS011;3091;51.506;7.672;2023-02-17T07:12:57;22.53;;;20.97;;
6121;SDS011;3091;51.506;7.672;2023-02-17T07:15:23;21.50;;;20.30;;
6121;SDS011;3091;51.506;7.672;2023-02-17T07:17:50;20.03;;;18.90;;
6121;SDS011;3091;51.506;7.672;2023-02-17T07:20:16;21.37;;;20.10;;
6121;SDS011;3091;51.506;7.672;2023-02-17T07:22:42;21.23;;;19.97;;
6121;SDS011;3091;51.506;7.672;2023-02-17T07:25:10;20.27;;;19.07;;
6121;SDS011;3091;51.506;7.672;2023-02-17T07:27:39;23.00;;;21.43;;
6121;SDS011;3091;51.506;7.672;2023-02-17T07:30:05;24.07;;;22.47;;
6121;SDS011;3091;51.506;7.672;2023-02-17T07:32:34;21.27;;;19.87;;
6121;SDS011;3091;51.506;7.672;2023-02-17T07:35:00;22.17;;;20.53;;
6121;SDS011;3091;51.506;7.672;2023-02-17T07:37:26;18.67;;;17.60;;
6121;SDS011;3091;51.506;7.672;2023-02-17T07:39:52;19.73;;;18.40;;
6121;SDS011;3091;51.506;7.672;2023-02-17T07:42:18;19.97;;;18.77;;
6121;SDS011;3091;51.506;7.672;2023-02-17T07:44:44;22.37;;;20.67;;
6121;SDS011;3091;51.506;7.672;2023-02-17T07:47:10;24.37;;;22.80;;
6121;SDS011;3091;51.506;7.672;2023-02-17T07:49:36;27.80;;;25.77;;
6121;SDS011;3091;51.506;7.672;2023-02-17T07:52:02;22.77;;;21.47;;
6121;SDS011;3091;51.506;7.672;2023-02-17T07:54:28;21.23;;;20.03;;
6121;SDS011;3091;51.506;7.672;2023-02-17T07:56:54;21.20;;;19.77;;
6121;SDS011;3091;51.506;7.672;2023-02-17T07:59:20;20.80;;;19.17;;
6121;SDS011;3091;51.506;7.672;2023-02-17T08:01:46;21.50;;;19.80;;
6121;SDS011;3091;51.506;7.672;2023-02-17T08:04:12;18.07;;;17.07;;
6121;SDS011;3091;51.506;7.672;2023-02-17T08:06:38;20.43;;;19.30;;
6121;SDS011;3091;51.506;7.672;2023-02-17T08:09:04;19.33;;;18.23;;
6121;SDS011;3091;51.506;7.672;2023-02-17T08:11:49;20.07;;;18.63;;
6121;SDS011;3091;51.506;7.672;2023-02-17T08:14:33;20.80;;;19.43;;
6121;SDS011;3091;51.506;7.672;2023-02-17T08:16:59;17.77;;;16.77;;
6121;SDS011;3091;51.506;7.672;2023-02-17T08:19:25;20.03;;;18.73;;
6121;SDS011;3091;51.506;7.672;2023-02-17T08:21:52;21.17;;;19.73;;
6121;SDS011;3091;51.506;7.672;2023-02-17T08:24:18;21.90;;;20.40;;
6121;SDS011;3091;51.506;7.672;2023-02-17T08:26:45;18.63;;;17.63;;
6121;SDS011;3091;51.506;7.672;2023-02-17T08:29:11;18.57;;;17.50;;
6121;SDS011;3091;51.506;7.672;2023-02-17T08:31:37;21.67;;;20.30;;
6121;SDS011;3091;51.506;7.672;2023-02-17T08:34:06;19.83;;;18.70;;
6121;SDS011;3091;51.506;7.672;2023-02-17T08:36:32;19.67;;;18.43;;
6121;SDS011;3091;51.506;7.672;2023-02-17T08:39:01;21.13;;;19.73;;
6121;SDS011;3091;51.506;7.672;2023-02-17T08:41:29;21.70;;;20.13;;
6121;SDS011;3091;51.506;7.672;2023-02-17T08:43:56;21.60;;;20.17;;
6121;SDS011;3091;51.506;7.672;2023-02-17T08:46:25;20.23;;;19.03;;
6121;SDS011;3091;51.506;7.672;2023-02-17T08:48:51;20.13;;;18.90;;
6121;SDS011;3091;51.506;7.672;2023-02-17T08:51:19;21.33;;;20.10;;
6121;SDS011;3091;51.506;7.672;2023-02-17T08:53:48;21.33;;;19.93;;
6121;SDS011;3091;51.506;7.672;2023-02-17T08:56:14;22.20;;;20.60;;
6121;SDS011;3091;51.506;7.672;2023-02-17T08:58:40;20.57;;;18.93;;
6121;SDS011;3091;51.506;7.672;2023-02-17T09:01:06;21.77;;;20.33;;
6121;SDS011;3091;51.506;7.672;2023-02-17T09:03:33;22.03;;;20.50;;
6121;SDS011;3091;51.506;7.672;2023-02-17T09:06:01;19.00;;;18.00;;
6121;SDS011;3091;51.506;7.672;2023-02-17T09:08:27;19.90;;;18.87;;
6121;SDS011;3091;51.506;7.672;2023-02-17T09:10:53;23.00;;;21.30;;
6121;SDS011;3091;51.506;7.672;2023-02-17T09:13:19;22.00;;;20.53;;
6121;SDS011;3091;51.506;7.672;2023-02-17T09:15:45;19.03;;;18.03;;
6121;SDS011;3091;51.506;7.672;2023-02-17T09:18:11;22.27;;;20.90;;
6121;SDS011;3091;51.506;7.672;2023-02-17T09:20:38;20.43;;;19.30;;
6121;SDS011;3091;51.506;7.672;2023-02-17T09:23:04;19.70;;;18.67;;
6121;SDS011;3091;51.506;7.672;2023-02-17T09:25:30;19.80;;;18.60;;
6121;SDS011;3091;51.506;7.672;2023-02-17T09:27:56;19.67;;;18.37;;
6121;SDS011;3091;51.506;7.672;2023-02-17T09:30:22;20.30;;;18.90;;
6121;SDS011;3091;51.506;7.672;2023-02-17T09:32:48;16.93;;;16.10;;
6121;SDS011;3091;51.506;7.672;2023-02-17T09:35:15;17.40;;;16.60;;
6121;SDS011;3091;51.506;7.672;2023-02-17T09:37:41;18.20;;;17.20;;
6121;SDS011;3091;51.506;7.672;2023-02-17T09:40:13;18.87;;;17.77;;
6121;SDS011;3091;51.506;7.672;2023-02-17T09:42:40;18.90;;;17.73;;
6121;SDS011;3091;51.506;7.672;2023-02-17T09:45:08;19.43;;;18.43;;
6121;SDS011;3091;51.506;7.672;2023-02-17T09:50:03;18.70;;;17.67;;
6121;SDS011;3091;51.506;7.672;2023-02-17T09:52:36;17.70;;;16.80;;
6121;SDS011;3091;51.506;7.672;2023-02-17T10:01:05;16.60;;;15.90;;
6121;SDS011;3091;51.506;7.672;2023-02-17T10:05:35;16.57;;;15.77;;
6121;SDS011;3091;51.506;7.672;2023-02-17T10:13:17;15.03;;;14.43;;
6121;SDS011;3091;51.506;7.672;2023-02-17T10:15:47;15.33;;;14.70;;
6121;SDS011;3091;51.506;7.672;2023-02-17T10:18:15;14.37;;;13.77;;
6121;SDS011;3091;51.506;7.672;2023-02-17T10:20:58;15.73;;;15.03;;
6121;SDS011;3091;51.506;7.672;2023-02-17T10:23:25;14.90;;;14.30;;
6121;SDS011;3091;51.506;7.672;2023-02-17T10:26:04;16.83;;;16.03;;
6121;SDS011;3091;51.506;7.672;2023-02-17T10:36:18;14.93;;;14.33;;
6121;SDS011;3091;51.506;7.672;2023-02-17T10:38:49;15.20;;;14.50;;
6121;SDS011;3091;51.506;7.672;2023-02-17T10:41:19;16.50;;;15.60;;
6121;SDS011;3091;51.506;7.672;2023-02-17T10:43:46;15.53;;;14.93;;
6121;SDS011;3091;51.506;7.672;2023-02-17T10:46:14;15.20;;;14.57;;
6121;SDS011;3091;51.506;7.672;2023-02-17T10:48:45;17.40;;;16.17;;
6121;SDS011;3091;51.506;7.672;2023-02-17T10:51:15;14.83;;;14.23;;
6121;SDS011;3091;51.506;7.672;2023-02-17T10:53:43;15.10;;;14.40;;
6121;SDS011;3091;51.506;7.672;2023-02-17T10:56:12;15.53;;;14.93;;
6121;SDS011;3091;51.506;7.672;2023-02-17T10:58:45;14.40;;;13.90;;
6121;SDS011;3091;51.506;7.672;2023-02-17T11:01:13;15.33;;;14.63;;
6121;SDS011;3091;51.506;7.672;2023-02-17T11:03:39;14.70;;;14.13;;
6121;SDS011;3091;51.506;7.672;2023-02-17T11:06:13;14.33;;;13.83;;
6121;SDS011;3091;51.506;7.672;2023-02-17T11:08:44;14.27;;;13.70;;
6121;SDS011;3091;51.506;7.672;2023-02-17T11:11:26;15.50;;;14.80;;
6121;SDS011;3091;51.506;7.672;2023-02-17T11:16:21;16.27;;;15.27;;
6121;SDS011;3091;51.506;7.672;2023-02-17T11:18:50;16.73;;;15.97;;
6121;SDS011;3091;51.506;7.672;2023-02-17T11:21:17;14.90;;;14.20;;
6121;SDS011;3091;51.506;7.672;2023-02-17T11:23:53;15.73;;;14.83;;
6121;SDS011;3091;51.506;7.672;2023-02-17T11:26:24;17.00;;;16.00;;
6121;SDS011;3091;51.506;7.672;2023-02-17T11:28:50;14.27;;;13.67;;
6121;SDS011;3091;51.506;7.672;2023-02-17T11:33:48;13.40;;;12.90;;
6121;SDS011;3091;51.506;7.672;2023-02-17T11:36:22;13.60;;;13.10;;
6121;SDS011;3091;51.506;7.672;2023-02-17T11:38:49;14.07;;;13.47;;
6121;SDS011;3091;51.506;7.672;2023-02-17T11:41:15;13.90;;;13.30;;
6121;SDS011;3091;51.506;7.672;2023-02-17T11:43:52;13.90;;;13.30;;
6121;SDS011;3091;51.506;7.672;2023-02-17T11:54:11;13.33;;;12.83;;
6121;SDS011;3091;51.506;7.672;2023-02-17T11:56:40;12.80;;;12.30;;
6121;SDS011;3091;51.506;7.672;2023-02-17T12:09:35;13.90;;;13.37;;
6121;SDS011;3091;51.506;7.672;2023-02-17T12:24:40;12.80;;;12.30;;
6121;SDS011;3091;51.506;7.672;2023-02-17T12:27:13;12.93;;;12.43;;
6121;SDS011;3091;51.506;7.672;2023-02-17T12:29:52;13.90;;;13.30;;
6121;SDS011;3091;51.506;7.672;2023-02-17T12:32:24;12.30;;;11.90;;
6121;SDS011;3091;51.506;7.672;2023-02-17T12:35:09;13.57;;;12.80;;
6121;SDS011;3091;51.506;7.672;2023-02-17T12:37:40;14.13;;;13.53;;
6121;SDS011;3091;51.506;7.672;2023-02-17T12:42:51;14.10;;;13.60;;
6121;SDS011;3091;51.506;7.672;2023-02-17T12:45:20;14.30;;;13.70;;
6121;SDS011;3091;51.506;7.672;2023-02-17T12:50:35;15.47;;;14.30;;
6121;SDS011;3091;51.506;7.672;2023-02-17T12:53:04;15.33;;;14.63;;
6121;SDS011;3091;51.506;7.672;2023-02-17T12:55:35;14.90;;;14.30;;
6121;SDS011;3091;51.506;7.672;2023-02-17T12:58:11;15.13;;;14.30;;
6121;SDS011;3091;51.506;7.672;2023-02-17T13:00:40;14.70;;;14.10;;
6121;SDS011;3091;51.506;7.672;2023-02-17T13:03:07;14.70;;;14.07;;
6121;SDS011;3091;51.506;7.672;2023-02-17T13:05:37;15.77;;;15.07;;
6121;SDS011;3091;51.506;7.672;2023-02-17T13:10:34;15.20;;;14.60;;
6121;SDS011;3091;51.506;7.672;2023-02-17T13:13:05;15.43;;;14.70;;
6121;SDS011;3091;51.506;7.672;2023-02-17T13:18:06;16.47;;;15.67;;
6121;SDS011;3091;51.506;7.672;2023-02-17T13:20:40;16.30;;;15.50;;
6121;SDS011;3091;51.506;7.672;2023-02-17T13:23:13;14.93;;;14.33;;
6121;SDS011;3091;51.506;7.672;2023-02-17T13:25:39;15.80;;;15.07;;
6121;SDS011;3091;51.506;7.672;2023-02-17T13:28:16;15.93;;;15.23;;
6121;SDS011;3091;51.506;7.672;2023-02-17T13:30:44;18.00;;;16.90;;
6121;SDS011;3091;51.506;7.672;2023-02-17T13:35:47;15.40;;;14.70;;
6121;SDS011;3091;51.506;7.672;2023-02-17T13:38:24;17.87;;;16.60;;
6121;SDS011;3091;51.506;7.672;2023-02-17T13:40:50;15.00;;;14.40;;
6121;SDS011;3091;51.506;7.672;2023-02-17T13:43:17;15.80;;;15.10;;
6121;SDS011;3091;51.506;7.672;2023-02-17T13:45:47;15.80;;;15.20;;
6121;SDS011;3091;51.506;7.672;2023-02-17T13:50:47;17.73;;;16.83;;
6121;SDS011;3091;51.506;7.672;2023-02-17T13:53:27;16.80;;;16.10;;
6121;SDS011;3091;51.506;7.672;2023-02-17T13:55:55;17.03;;;16.23;;
6121;SDS011;3091;51.506;7.672;2023-02-17T13:58:40;17.30;;;16.50;;
6121;SDS011;3091;51.506;7.672;2023-02-17T14:01:07;17.03;;;16.23;;
6121;SDS011;3091;51.506;7.672;2023-02-17T14:03:34;15.90;;;15.30;;
6121;SDS011;3091;51.506;7.672;2023-02-17T14:06:06;16.60;;;15.90;;
6121;SDS011;3091;51.506;7.672;2023-02-17T14:08:36;16.13;;;15.53;;
6121;SDS011;3091;51.506;7.672;2023-02-17T14:13:32;16.00;;;15.30;;
6121;SDS011;3091;51.506;7.672;2023-02-17T14:15:59;20.00;;;18.90;;
6121;SDS011;3091;51.506;7.672;2023-02-17T14:18:35;25.07;;;23.87;;
6121;SDS011;3091;51.506;7.672;2023-02-17T14:21:09;21.57;;;20.57;;
6121;SDS011;3091;51.506;7.672;2023-02-17T14:23:48;19.47;;;18.57;;
6121;SDS011;3091;51.506;7.672;2023-02-17T14:29:04;42.93;;;40.73;;
6121;SDS011;3091;51.506;7.672;2023-02-17T14:31:40;70.17;;;66.30;;
6121;SDS011;3091;51.506;7.672;2023-02-17T14:34:06;106.40;;;101.27;;
6121;SDS011;3091;51.506;7.672;2023-02-17T14:36:37;115.93;;;110.00;;
6121;SDS011;3091;51.506;7.672;2023-02-17T14:39:05;127.20;;;120.30;;
6121;SDS011;3091;51.506;7.672;2023-02-17T14:41:31;143.73;;;136.93;;
6121;SDS011;3091;51.506;7.672;2023-02-17T14:43:57;148.30;;;141.23;;
6121;SDS011;3091;51.506;7.672;2023-02-17T14:46:24;143.03;;;135.97;;
6121;SDS011;3091;51.506;7.672;2023-02-17T14:48:51;141.77;;;134.63;;
6121;SDS011;3091;51.506;7.672;2023-02-17T14:51:18;132.80;;;126.20;;
6121;SDS011;3091;51.506;7.672;2023-02-17T14:53:44;128.77;;;121.97;;
6121;SDS011;3091;51.506;7.672;2023-02-17T14:58:43;120.67;;;114.47;;
6121;SDS011;3091;51.506;7.672;2023-02-17T15:01:13;112.57;;;106.57;;
6121;SDS011;3091;51.506;7.672;2023-02-17T15:03:42;114.73;;;108.33;;
6121;SDS011;3091;51.506;7.672;2023-02-17T15:06:18;100.27;;;94.57;;
6121;SDS011;3091;51.506;7.672;2023-02-17T15:08:46;97.17;;;91.53;;
6121;SDS011;3091;51.506;7.672;2023-02-17T15:11:34;111.03;;;105.30;;
6121;SDS011;3091;51.506;7.672;2023-02-17T15:14:01;114.70;;;108.47;;
6121;SDS011;3091;51.506;7.672;2023-02-17T15:16:27;104.47;;;98.77;;
6121;SDS011;3091;51.506;7.672;2023-02-17T15:18:53;102.50;;;96.77;;
6121;SDS011;3091;51.506;7.672;2023-02-17T15:21:24;101.57;;;95.80;;
6121;SDS011;3091;51.506;7.672;2023-02-17T15:23:51;96.23;;;90.53;;
6121;SDS011;3091;51.506;7.672;2023-02-17T15:26:17;90.20;;;84.70;;
6121;SDS011;3091;51.506;7.672;2023-02-17T15:28:44;85.03;;;79.63;;
6121;SDS011;3091;51.506;7.672;2023-02-17T15:31:13;84.90;;;79.50;;
6121;SDS011;3091;51.506;7.672;2023-02-17T15:33:40;75.40;;;70.30;;
6121;SDS011;3091;51.506;7.672;2023-02-17T15:36:08;80.20;;;74.60;;
6121;SDS011;3091;51.506;7.672;2023-02-17T15:38:35;90.43;;;85.37;;
6121;SDS011;3091;51.506;7.672;2023-02-17T15:41:01;92.90;;;87.40;;
6121;SDS011;3091;51.506;7.672;2023-02-17T15:43:32;86.83;;;81.70;;
6121;SDS011;3091;51.506;7.672;2023-02-17T15:45:58;85.70;;;80.80;;
6121;SDS011;3091;51.506;7.672;2023-02-17T15:48:25;90.17;;;84.93;;
6121;SDS011;3091;51.506;7.672;2023-02-17T15:50:53;84.33;;;79.27;;
6121;SDS011;3091;51.506;7.672;2023-02-17T15:53:20;90.23;;;84.63;;
6121;SDS011;3091;51.506;7.672;2023-02-17T15:55:46;92.50;;;87.27;;
6121;SDS011;3091;51.506;7.672;2023-02-17T15:58:14;83.33;;;78.37;;
6121;SDS011;3091;51.506;7.672;2023-02-17T16:00:41;69.40;;;64.80;;
6121;SDS011;3091;51.506;7.672;2023-02-17T16:03:10;70.50;;;65.57;;
6121;SDS011;3091;51.506;7.672;2023-02-17T16:05:37;76.53;;;71.47;;
6121;SDS011;3091;51.506;7.672;2023-02-17T16:08:04;79.27;;;74.40;;
6121;SDS011;3091;51.506;7.672;2023-02-17T16:10:30;78.47;;;73.53;;
6121;SDS011;3091;51.506;7.672;2023-02-17T16:12:56;75.43;;;70.73;;
6121;SDS011;3091;51.506;7.672;2023-02-17T16:15:23;80.73;;;75.83;;
6121;SDS011;3091;51.506;7.672;2023-02-17T16:17:50;95.13;;;89.70;;
6121;SDS011;3091;51.506;7.672;2023-02-17T16:22:45;94.43;;;88.93;;
6121;SDS011;3091;51.506;7.672;2023-02-17T16:25:11;98.73;;;93.40;;
6121;SDS011;3091;51.506;7.672;2023-02-17T16:27:38;99.67;;;94.27;;
6121;SDS011;3091;51.506;7.672;2023-02-17T16:30:20;85.00;;;79.60;;
6121;SDS011;3091;51.506;7.672;2023-02-17T16:32:47;85.63;;;80.63;;
6121;SDS011;3091;51.506;7.672;2023-02-17T16:35:14;84.63;;;79.73;;
6121;SDS011;3091;51.506;7.672;2023-02-17T16:37:41;90.90;;;86.10;;
6121;SDS011;3091;51.506;7.672;2023-02-17T16:40:14;87.30;;;82.60;;
6121;SDS011;3091;51.506;7.672;2023-02-17T16:42:42;78.50;;;74.20;;